PWSweather.com
Personal Weather Stations
Station Observations
WISCHPK61
Green Bay Schmitt Park, Green Bay, WI 54311

Green Bay Schmitt ParkGreen Bay, WI 54311

Lat: 44.514277, Lon: -87.935067

Elevation: 735

Station Type: Acu Rite Pro Weather Center model 02032C

http://greenbayweathercam.com

High Low Average
Temperature 94.3°F34.6°C 49.8°F9.9°C 70.5°F21.4°C
Dew Point 94.0°F34.4°C 35.0°F1.7°C 61.5°F16.4°C
Winds 2.3 mph 3.7 kmh Calm Calm Calm SCalm S
Wind Gusts 4.6 mph7.4 kmh -- 1.0 mph1.6 kmh
Humidity 99% 44% 77%
Pressure 29.12 in986.1 mb 28.95 in980.4 mb -
Precipitation 0.00 in0.0 mm - -
Hour Temp Dew Point Humidity Winds Wind Gusts Pressure Precip Precip Rate Daily Precip Total
12:00 AM 51.1°F10.6°C 35.0°F1.7°C 54% Calm Calm -- 29.12 in986.1 mb - 0.00 in0.0 mm 0.00 in0.0 mm
01:00 AM 51.1°F10.6°C 35.9°F2.2°C 56% Calm Calm -- 29.12 in986.1 mb - 0.00 in0.0 mm 0.00 in0.0 mm
02:00 AM 51.1°F10.6°C 38.9°F3.8°C 63% Calm Calm -- 29.12 in986.1 mb - 0.00 in0.0 mm 0.00 in0.0 mm
03:00 AM 51.1°F10.6°C 42.7°F5.9°C 73% Calm Calm -- 29.12 in986.1 mb - 0.00 in0.0 mm 0.00 in0.0 mm
04:00 AM 51.1°F10.6°C 45.8°F7.7°C 82% Calm Calm -- 29.12 in986.1 mb - 0.00 in0.0 mm 0.00 in0.0 mm
05:00 AM 49.8°F9.9°C 49.0°F9.4°C 97% Calm Calm -- 29.09 in985.1 mb - 0.00 in0.0 mm 0.00 in0.0 mm
06:00 AM 51.3°F10.7°C 51.0°F10.6°C 99% Calm Calm -- 29.09 in985.1 mb - 0.00 in0.0 mm 0.00 in0.0 mm
07:00 AM 57.2°F14.0°C 56.9°F13.8°C 99% Calm Calm -- 29.07 in984.4 mb - 0.00 in0.0 mm 0.00 in0.0 mm
08:00 AM 66.6°F19.2°C 66.3°F19.1°C 99% Calm Calm -- 29.06 in984.1 mb - 0.00 in0.0 mm 0.00 in0.0 mm
09:00 AM 75.8°F24.3°C 75.5°F24.2°C 99% Calm Calm -- 29.06 in984.1 mb - 0.00 in0.0 mm 0.00 in0.0 mm
10:00 AM 81.5°F27.5°C 63.8°F17.7°C 55% 1.2 mph ESE1.9 kmh ESE 2.3 mph3.7 kmh 29.04 in983.4 mb - 0.00 in0.0 mm 0.00 in0.0 mm
11:00 AM 86.4°F30.2°C 69.4°F20.8°C 57% Calm Calm -- 29.02 in982.7 mb - 0.00 in0.0 mm 0.00 in0.0 mm
12:00 PM 91.2°F32.9°C 67.5°F19.7°C 46% Calm Calm -- 29.02 in982.7 mb - 0.00 in0.0 mm 0.00 in0.0 mm
01:00 PM 93.2°F34.0°C 68.0°F20.0°C 44% Calm Calm -- 29.00 in982.1 mb - 0.00 in0.0 mm 0.00 in0.0 mm
02:00 PM 94.3°F34.6°C 94.0°F34.4°C 99% 1.2 mph NNW1.9 kmh NNW -- 28.98 in981.4 mb - 0.00 in0.0 mm 0.00 in0.0 mm
03:00 PM 91.9°F33.3°C 74.5°F23.6°C 57% 2.3 mph SE3.7 kmh SE 4.6 mph7.4 kmh 28.95 in980.4 mb - 0.00 in0.0 mm 0.00 in0.0 mm
04:00 PM 90.0°F32.2°C 89.7°F32.1°C 99% Calm Calm 4.6 mph7.4 kmh 28.95 in980.4 mb - 0.00 in0.0 mm 0.00 in0.0 mm
05:00 PM 83.7°F28.7°C 83.4°F28.6°C 99% Calm Calm -- 28.95 in980.4 mb - 0.00 in0.0 mm 0.00 in0.0 mm
06:00 PM 76.1°F24.5°C 75.8°F24.3°C 99% Calm Calm -- 29.01 in982.4 mb - 0.00 in0.0 mm 0.00 in0.0 mm
07:00 PM 66.6°F19.2°C 66.3°F19.1°C 99% Calm Calm 1.2 mph1.9 kmh 29.01 in982.4 mb - 0.00 in0.0 mm 0.00 in0.0 mm
08:00 PM 61.3°F16.3°C 61.0°F16.1°C 99% Calm Calm -- 29.02 in982.7 mb - 0.06 in1.5 mm 0.06 in1.5 mm
09:00 PM 57.2°F14.0°C 56.9°F13.8°C 99% Calm Calm -- 29.07 in984.4 mb - 0.15 in3.8 mm 0.21 in5.3 mm
10:00 PM 57.0°F13.9°C 54.7°F12.6°C 92% Calm Calm -- 29.08 in984.8 mb - 0.03 in0.8 mm 0.24 in6.1 mm
11:00 PM 55.8°F13.2°C 55.2°F12.9°C 98% Calm Calm -- 29.08 in984.8 mb - 0.01 in0.3 mm 0.25 in6.4 mm